sensor_id;sensor_type;location;lat;lon;timestamp;P1;durP1;ratioP1;P2;durP2;ratioP2
22863;SDS011;11599;49.882;8.680;2023-02-21T00:04:23;9.00;;;3.30;;
22863;SDS011;11599;49.882;8.680;2023-02-21T00:15:02;11.90;;;3.90;;
22863;SDS011;11599;49.882;8.680;2023-02-21T00:25:42;12.30;;;3.97;;
22863;SDS011;11599;49.882;8.680;2023-02-21T00:36:21;7.40;;;3.17;;
22863;SDS011;11599;49.882;8.680;2023-02-21T00:47:02;12.60;;;4.17;;
22863;SDS011;11599;49.882;8.680;2023-02-21T00:57:44;12.77;;;3.53;;
22863;SDS011;11599;49.882;8.680;2023-02-21T01:08:25;11.43;;;3.97;;
22863;SDS011;11599;49.882;8.680;2023-02-21T01:19:04;12.23;;;4.27;;
22863;SDS011;11599;49.882;8.680;2023-02-21T01:29:46;10.80;;;3.90;;
22863;SDS011;11599;49.882;8.680;2023-02-21T01:40:25;13.63;;;4.40;;
22863;SDS011;11599;49.882;8.680;2023-02-21T01:51:06;12.70;;;4.00;;
22863;SDS011;11599;49.882;8.680;2023-02-21T02:01:48;8.33;;;3.67;;
22863;SDS011;11599;49.882;8.680;2023-02-21T02:12:34;9.83;;;3.67;;
22863;SDS011;11599;49.882;8.680;2023-02-21T02:23:04;7.00;;;3.63;;
22863;SDS011;11599;49.882;8.680;2023-02-21T02:44:14;10.73;;;4.13;;
22863;SDS011;11599;49.882;8.680;2023-02-21T02:54:36;13.13;;;4.77;;
22863;SDS011;11599;49.882;8.680;2023-02-21T03:05:02;11.47;;;5.20;;
22863;SDS011;11599;49.882;8.680;2023-02-21T03:15:34;13.23;;;4.80;;
22863;SDS011;11599;49.882;8.680;2023-02-21T03:26:01;16.17;;;4.43;;
22863;SDS011;11599;49.882;8.680;2023-02-21T03:36:24;12.07;;;4.40;;
22863;SDS011;11599;49.882;8.680;2023-02-21T03:46:48;7.63;;;3.23;;
22863;SDS011;11599;49.882;8.680;2023-02-21T03:57:10;12.03;;;4.67;;
22863;SDS011;11599;49.882;8.680;2023-02-21T04:07:36;12.70;;;5.23;;
22863;SDS011;11599;49.882;8.680;2023-02-21T04:17:58;12.20;;;4.27;;
22863;SDS011;11599;49.882;8.680;2023-02-21T04:28:21;11.90;;;5.07;;
22863;SDS011;11599;49.882;8.680;2023-02-21T04:38:43;15.07;;;5.57;;
22863;SDS011;11599;49.882;8.680;2023-02-21T04:49:06;15.07;;;5.73;;
22863;SDS011;11599;49.882;8.680;2023-02-21T04:59:27;17.53;;;6.50;;
22863;SDS011;11599;49.882;8.680;2023-02-21T05:09:50;15.87;;;6.00;;
22863;SDS011;11599;49.882;8.680;2023-02-21T05:20:12;18.47;;;6.87;;
22863;SDS011;11599;49.882;8.680;2023-02-21T05:30:35;18.07;;;7.47;;
22863;SDS011;11599;49.882;8.680;2023-02-21T05:40:56;16.47;;;6.60;;
22863;SDS011;11599;49.882;8.680;2023-02-21T05:51:20;14.77;;;7.17;;
22863;SDS011;11599;49.882;8.680;2023-02-21T06:01:42;17.30;;;7.00;;
22863;SDS011;11599;49.882;8.680;2023-02-21T06:12:05;16.20;;;6.57;;
22863;SDS011;11599;49.882;8.680;2023-02-21T06:22:27;17.83;;;6.63;;
22863;SDS011;11599;49.882;8.680;2023-02-21T06:32:52;16.87;;;6.90;;
22863;SDS011;11599;49.882;8.680;2023-02-21T06:43:13;18.00;;;6.50;;
22863;SDS011;11599;49.882;8.680;2023-02-21T06:53:36;13.40;;;5.70;;
22863;SDS011;11599;49.882;8.680;2023-02-21T07:03:58;14.77;;;6.13;;
22863;SDS011;11599;49.882;8.680;2023-02-21T07:14:21;17.97;;;6.13;;
22863;SDS011;11599;49.882;8.680;2023-02-21T07:24:43;14.93;;;5.50;;
22863;SDS011;11599;49.882;8.680;2023-02-21T07:35:06;14.57;;;5.30;;
22863;SDS011;11599;49.882;8.680;2023-02-21T07:45:28;16.33;;;6.40;;
22863;SDS011;11599;49.882;8.680;2023-02-21T07:55:50;18.73;;;6.17;;
22863;SDS011;11599;49.882;8.680;2023-02-21T08:06:12;15.17;;;7.20;;
22863;SDS011;11599;49.882;8.680;2023-02-21T08:16:35;13.90;;;6.53;;
22863;SDS011;11599;49.882;8.680;2023-02-21T08:26:56;18.30;;;7.57;;
22863;SDS011;11599;49.882;8.680;2023-02-21T08:37:19;22.80;;;7.80;;
22863;SDS011;11599;49.882;8.680;2023-02-21T08:47:40;17.60;;;8.13;;
22863;SDS011;11599;49.882;8.680;2023-02-21T08:58:03;15.13;;;7.20;;
22863;SDS011;11599;49.882;8.680;2023-02-21T09:08:25;17.90;;;7.60;;
22863;SDS011;11599;49.882;8.680;2023-02-21T09:18:55;17.43;;;7.93;;
22863;SDS011;11599;49.882;8.680;2023-02-21T09:29:18;15.83;;;7.80;;
22863;SDS011;11599;49.882;8.680;2023-02-21T09:39:40;19.27;;;7.43;;
22863;SDS011;11599;49.882;8.680;2023-02-21T09:50:03;14.70;;;7.40;;
22863;SDS011;11599;49.882;8.680;2023-02-21T10:00:28;12.05;;;7.53;;
22863;SDS011;11599;49.882;8.680;2023-02-21T10:10:53;11.85;;;7.40;;
22863;SDS011;11599;49.882;8.680;2023-02-21T10:21:20;12.70;;;7.55;;
22863;SDS011;11599;49.882;8.680;2023-02-21T10:31:42;11.70;;;6.65;;
22863;SDS011;11599;49.882;8.680;2023-02-21T10:42:09;12.60;;;7.35;;
22863;SDS011;11599;49.882;8.680;2023-02-21T10:52:35;10.95;;;7.45;;
22863;SDS011;11599;49.882;8.680;2023-02-21T11:03:02;13.40;;;7.65;;
22863;SDS011;11599;49.882;8.680;2023-02-21T11:13:24;13.73;;;7.55;;
22863;SDS011;11599;49.882;8.680;2023-02-21T11:23:48;8.60;;;5.60;;
22863;SDS011;11599;49.882;8.680;2023-02-21T11:34:13;12.63;;;6.78;;
22863;SDS011;11599;49.882;8.680;2023-02-21T11:44:38;10.32;;;5.60;;
22863;SDS011;11599;49.882;8.680;2023-02-21T11:54:59;8.70;;;5.28;;
22863;SDS011;11599;49.882;8.680;2023-02-21T12:05:28;14.35;;;6.30;;
22863;SDS011;11599;49.882;8.680;2023-02-21T12:15:54;7.78;;;4.43;;
22863;SDS011;11599;49.882;8.680;2023-02-21T12:26:24;7.57;;;4.72;;
22863;SDS011;11599;49.882;8.680;2023-02-21T12:36:54;8.20;;;4.95;;
22863;SDS011;11599;49.882;8.680;2023-02-21T12:47:18;7.93;;;4.68;;
22863;SDS011;11599;49.882;8.680;2023-02-21T12:57:46;11.55;;;4.80;;
22863;SDS011;11599;49.882;8.680;2023-02-21T13:08:13;9.52;;;5.45;;
22863;SDS011;11599;49.882;8.680;2023-02-21T13:18:36;8.10;;;4.93;;
22863;SDS011;11599;49.882;8.680;2023-02-21T13:29:00;8.10;;;5.00;;
22863;SDS011;11599;49.882;8.680;2023-02-21T13:39:26;9.03;;;5.67;;
22863;SDS011;11599;49.882;8.680;2023-02-21T13:49:53;11.88;;;5.57;;
22863;SDS011;11599;49.882;8.680;2023-02-21T14:10:56;19.73;;;6.03;;
22863;SDS011;11599;49.882;8.680;2023-02-21T14:21:21;7.87;;;4.13;;
22863;SDS011;11599;49.882;8.680;2023-02-21T14:31:50;7.28;;;3.92;;
22863;SDS011;11599;49.882;8.680;2023-02-21T14:42:17;7.15;;;4.85;;
22863;SDS011;11599;49.882;8.680;2023-02-21T14:52:59;11.48;;;4.18;;
22863;SDS011;11599;49.882;8.680;2023-02-21T15:03:26;8.05;;;4.18;;
22863;SDS011;11599;49.882;8.680;2023-02-21T15:24:27;9.53;;;5.00;;
22863;SDS011;11599;49.882;8.680;2023-02-21T15:34:48;10.30;;;4.35;;
22863;SDS011;11599;49.882;8.680;2023-02-21T15:45:17;15.63;;;5.18;;
22863;SDS011;11599;49.882;8.680;2023-02-21T15:55:39;7.93;;;4.35;;
22863;SDS011;11599;49.882;8.680;2023-02-21T16:06:19;12.73;;;4.68;;
22863;SDS011;11599;49.882;8.680;2023-02-21T16:16:41;14.32;;;5.05;;
22863;SDS011;11599;49.882;8.680;2023-02-21T16:27:05;11.82;;;5.95;;
22863;SDS011;11599;49.882;8.680;2023-02-21T16:37:28;10.77;;;5.82;;
22863;SDS011;11599;49.882;8.680;2023-02-21T16:47:55;12.10;;;5.90;;
22863;SDS011;11599;49.882;8.680;2023-02-21T16:58:18;19.67;;;6.07;;
22863;SDS011;11599;49.882;8.680;2023-02-21T17:08:46;12.23;;;5.57;;
22863;SDS011;11599;49.882;8.680;2023-02-21T17:19:12;17.27;;;5.40;;
22863;SDS011;11599;49.882;8.680;2023-02-21T17:29:37;15.20;;;5.67;;
22863;SDS011;11599;49.882;8.680;2023-02-21T17:40:02;11.30;;;5.30;;
22863;SDS011;11599;49.882;8.680;2023-02-21T17:50:27;10.70;;;4.67;;
22863;SDS011;11599;49.882;8.680;2023-02-21T18:00:49;11.77;;;4.17;;
22863;SDS011;11599;49.882;8.680;2023-02-21T18:11:16;12.63;;;4.07;;
22863;SDS011;11599;49.882;8.680;2023-02-21T18:21:37;7.70;;;3.50;;
22863;SDS011;11599;49.882;8.680;2023-02-21T18:32:08;8.73;;;3.10;;
22863;SDS011;11599;49.882;8.680;2023-02-21T18:42:30;6.90;;;2.80;;
22863;SDS011;11599;49.882;8.680;2023-02-21T18:52:53;9.37;;;2.97;;
22863;SDS011;11599;49.882;8.680;2023-02-21T19:03:14;8.03;;;3.03;;
22863;SDS011;11599;49.882;8.680;2023-02-21T19:13:37;7.23;;;2.80;;
22863;SDS011;11599;49.882;8.680;2023-02-21T19:23:58;10.70;;;3.30;;
22863;SDS011;11599;49.882;8.680;2023-02-21T19:34:21;8.40;;;2.63;;
22863;SDS011;11599;49.882;8.680;2023-02-21T19:44:42;6.80;;;2.90;;
22863;SDS011;11599;49.882;8.680;2023-02-21T19:55:06;8.97;;;2.57;;
22863;SDS011;11599;49.882;8.680;2023-02-21T20:05:27;8.73;;;3.03;;
22863;SDS011;11599;49.882;8.680;2023-02-21T20:15:50;6.93;;;2.50;;
22863;SDS011;11599;49.882;8.680;2023-02-21T20:26:12;6.67;;;2.90;;
22863;SDS011;11599;49.882;8.680;2023-02-21T20:36:35;6.47;;;3.07;;
22863;SDS011;11599;49.882;8.680;2023-02-21T20:46:57;13.07;;;4.07;;
22863;SDS011;11599;49.882;8.680;2023-02-21T20:57:20;7.60;;;3.70;;
22863;SDS011;11599;49.882;8.680;2023-02-21T21:07:42;10.23;;;3.93;;
22863;SDS011;11599;49.882;8.680;2023-02-21T21:18:05;17.57;;;4.47;;
22863;SDS011;11599;49.882;8.680;2023-02-21T21:28:29;8.37;;;4.23;;
22863;SDS011;11599;49.882;8.680;2023-02-21T21:38:53;11.70;;;4.87;;
22863;SDS011;11599;49.882;8.680;2023-02-21T21:49:17;12.83;;;5.50;;
22863;SDS011;11599;49.882;8.680;2023-02-21T21:59:41;14.67;;;6.03;;
22863;SDS011;11599;49.882;8.680;2023-02-21T22:10:02;14.80;;;5.47;;
22863;SDS011;11599;49.882;8.680;2023-02-21T22:20:31;14.83;;;5.60;;
22863;SDS011;11599;49.882;8.680;2023-02-21T22:30:55;11.37;;;4.87;;
22863;SDS011;11599;49.882;8.680;2023-02-21T22:41:19;11.90;;;4.90;;
22863;SDS011;11599;49.882;8.680;2023-02-21T22:51:41;11.80;;;4.93;;
22863;SDS011;11599;49.882;8.680;2023-02-21T23:02:03;15.40;;;5.00;;
22863;SDS011;11599;49.882;8.680;2023-02-21T23:12:25;12.70;;;5.73;;
22863;SDS011;11599;49.882;8.680;2023-02-21T23:22:49;10.30;;;4.93;;
22863;SDS011;11599;49.882;8.680;2023-02-21T23:33:11;9.43;;;4.60;;
22863;SDS011;11599;49.882;8.680;2023-02-21T23:43:35;12.47;;;4.60;;
22863;SDS011;11599;49.882;8.680;2023-02-21T23:53:57;10.20;;;4.10;;
